Charlotte Douglas International Airport Charlotte US
ICAO: KCLT
IATA: CLT
Category: Large
Scheduled Services: Yes

Elevation: 748 ft
TransAlt. 18000 ft.

Airport Communications:
APP/DEP:120.05
ATIS:121.15
CLNC DEL:127.15
GND:121.8
BASE OPS COMD POST:29.22
RALEIGH RDO:122.4
TWR:118.1
UNICOM:122.95

KCLT Zoom In..

Runways:

(A) RW 05 length 7502 ft width 150 ft
ILS 110.95 / hdg 55

(B) RW 18C length 10000 ft width 150 ft
ILS 111.30 / hdg 183

(C) RW 18L length 8676 ft width 150 ft
ILS 110.35 / hdg 183

(D) RW 18R length 9000 ft width 150 ft
ILS 110.15 / hdg 183

(E) RW 23 length 7502 ft width 150 ft
ILS 109.50 / hdg 235

(F) RW 36C length 10000 ft width 150 ft
ILS 111.70 / hdg 3

(G) RW 36L length 9000 ft width 150 ft
ILS 110.15 / hdg 3

(H) RW 36R length 8676 ft width 150 ft
ILS 108.90 / hdg 3

Location; KCLT
Day. 22 / Time. 01.52 Zulu
* Altimeter: 30.14
* Temperature: 24° c. 75.2°f.
* Wind from: 140° Speed 04 kn.
Dewpoint: 19° c.
Visibility: 10 Statute Miles.
Clouds: Scattered 7000 ft.
Clouds: Broken 12000 ft.

KCLT 220152Z 14004KT 10SM SCT070 BKN120 24/19 A3014 RMK AO2 LTG DSNT SE RAE01 SLP199 OCNL LTGIC DSNT E-SE P0000 T02390194


Wind From 140°
Speed 04 kn.

 
 
jpsmedia.com for Web Design SOUNDCLOUD worldairports.se 2018   terms of use